Messwerte Eugene

Temperatur

Temperatur
°C
1573848000 12.00 12.00 14
1573851600 13.00 13.00 14
1573855200 14.00 14.00 15
1573858800 15.00 15.00 15
1573862400 16.00 16.00 15
1573866000 17.00 17.00 14
1573869600 18.00 18.00 11
1573873200 19.00 19.00 11
1573876800 20.00 20.00
1573880400 21.00 21.00 7
1573884000 22.00 22.00 7
1573887600 23.00 23.00 9
1573891200 0.00 0.00
1573894800 1.00 1.00 11
1573898400 2.00 2.00 11
1573902000 3.00 3.00 11
1573905600 4.00 4.00 9
1573909200 5.00 5.00 9
1573912800 6.00 6.00 9
1573916400 7.00 7.00 9
1573920000 8.00 8.00 10
1573923600 9.00 9.00 10
1573927200 10.00 10.00 11
1573930800 11.00 11.00 12

Aktuellste Messwerte

Wettercharakter
Wetter: wechselnd bewölkt
Temperatur
13 °C
Feuchtigkeit
70 %
Wind
0 km/h, -
Luftdruck
1026 hPa
Messzeit: 16. November 2019, 12.00Datenquelle: METAR

Weitere Messstationen in der Nähe

Messstation Temperatur Entfernung
Corvallis 11 °C 42 km
Newport 14 °C 83 km
Salem 12 °C 90 km
Roseburg 14 °C 98 km
North Bend 14 °C 113 km
McMinnville 11 °C 119 km
Aurora 11 °C 131 km

Wind

Windrichtung Böen Mittelwind
° km/h km/h
1573848000 12.00 11.00 - 12.00 190° 15
1573851600 13.00 12.00 - 13.00 210° 15
1573855200 14.00 13.00 - 14.00 210° 15
1573858800 15.00 14.00 - 15.00 190° 5
1573862400 16.00 15.00 - 16.00 220° 5
1573866000 17.00 16.00 - 17.00 250° 5
1573869600 18.00 17.00 - 18.00 0
1573873200 19.00 18.00 - 19.00 0
1573876800 20.00 19.00 - 20.00
1573880400 21.00 20.00 - 21.00 240° 5
1573884000 22.00 21.00 - 22.00 190° 10
1573887600 23.00 22.00 - 23.00 200° 15
1573891200 0.00 23.00 - 0.00
1573894800 1.00 0.00 - 1.00 210° 5
1573898400 2.00 1.00 - 2.00 250° 5
1573902000 3.00 2.00 - 3.00 240° 5
1573905600 4.00 3.00 - 4.00 10° 10
1573909200 5.00 4.00 - 5.00 30° 5
1573912800 6.00 5.00 - 6.00 0
1573916400 7.00 6.00 - 7.00 0
1573920000 8.00 7.00 - 8.00 180° 5
1573923600 9.00 8.00 - 9.00 150° 10
1573927200 10.00 9.00 - 10.00 160° 5
1573930800 11.00 10.00 - 11.00 130° 15

Ihre Wetterstation

Fehlt Ihre Wetterstation auf unserem Portal?

Schreiben Sie an network@meteonews.ch

Klima

Wann ist es am wärmsten? Wann regnet es am wenigsten? Unsere Klimadaten geben Auskunft.